Time;durP1;ratioP1;P1;durP2;ratioP2;P2;SDS_P1;SDS_P2;PMS_P1;PMS_P2;Temp;Humidity;BMP_temperature;BMP_pressure;BME280_temperature;BME280_humidity;BME280_pressure;Samples;Min_cycle;Max_cycle;Signal;HPM_P1;HPM_P2
2020/12/15 00:01:10;;;;;;;19.38;11.70;;;8.30;94.40;;;;;;5029662;28;20026;-71
2020/12/15 00:03:36;;;;;;;17.60;11.60;;;8.40;94.40;;;;;;5030646;28;20033;-71
2020/12/15 00:06:01;;;;;;;17.33;11.75;;;8.30;94.40;;;;;;5036990;28;20029;-71
2020/12/15 00:08:26;;;;;;;19.08;12.23;;;8.30;94.40;;;;;;5031594;28;20179;-72
2020/12/15 00:10:52;;;;;;;18.27;11.90;;;8.30;94.60;;;;;;5011941;28;20467;-71
2020/12/15 00:13:17;;;;;;;20.48;12.32;;;8.30;94.40;;;;;;5045413;28;20021;-72
2020/12/15 00:15:43;;;;;;;17.88;12.00;;;8.20;94.40;;;;;;5032883;28;20030;-73
2020/12/15 00:18:08;;;;;;;17.17;11.52;;;8.20;94.40;;;;;;5030904;28;20490;-73
2020/12/15 00:20:34;;;;;;;18.63;12.43;;;8.20;94.40;;;;;;5030588;28;20303;-72
2020/12/15 00:23:00;;;;;;;17.27;11.27;;;8.20;94.40;;;;;;5030447;28;20083;-70
2020/12/15 00:25:26;;;;;;;21.05;12.20;;;8.20;94.40;;;;;;5030210;28;20420;-71
2020/12/15 00:27:51;;;;;;;15.35;10.98;;;8.10;94.40;;;;;;5041083;28;20140;-71
2020/12/15 00:30:17;;;;;;;18.33;11.32;;;8.20;94.40;;;;;;5033568;28;20029;-72
2020/12/15 00:32:48;;;;;;;19.83;12.85;;;8.10;94.30;;;;;;5032492;28;20049;-72
2020/12/15 00:35:14;;;;;;;16.20;11.20;;;8.10;94.40;;;;;;5029794;28;20026;-72
2020/12/15 00:37:39;;;;;;;17.00;11.50;;;8.10;94.30;;;;;;5029171;28;20029;-70
2020/12/15 00:40:06;;;;;;;17.00;11.45;;;8.10;94.40;;;;;;5014902;28;20075;-71
2020/12/15 00:42:32;;;;;;;17.13;11.50;;;8.00;94.40;;;;;;5038541;28;20374;-72
2020/12/15 00:44:57;;;;;;;17.88;11.20;;;8.00;94.40;;;;;;5030662;28;20032;-72
2020/12/15 00:47:23;;;;;;;18.45;11.55;;;8.00;94.40;;;;;;5003249;28;20030;-71
2020/12/15 00:49:48;;;;;;;20.30;11.88;;;8.00;94.40;;;;;;5014141;28;20022;-71
2020/12/15 00:52:14;;;;;;;18.42;11.60;;;8.00;94.40;;;;;;5023517;28;20071;-71
2020/12/15 00:54:39;;;;;;;17.05;11.75;;;8.00;94.40;;;;;;5033651;28;20041;-72
2020/12/15 00:57:05;;;;;;;16.50;10.55;;;7.90;94.40;;;;;;5029982;28;20104;-71
2020/12/15 00:59:30;;;;;;;18.38;12.23;;;7.90;94.40;;;;;;5034152;28;20079;-71
2020/12/15 01:02:00;;;;;;;16.90;11.65;;;7.90;94.40;;;;;;5048324;28;20453;-71
2020/12/15 01:04:26;;;;;;;17.10;11.30;;;8.00;94.40;;;;;;5037021;28;20029;-72
2020/12/15 01:06:51;;;;;;;15.70;11.18;;;7.90;94.30;;;;;;5033948;28;20044;-71
2020/12/15 01:09:17;;;;;;;17.95;11.02;;;7.90;94.30;;;;;;5002097;28;20474;-72
2020/12/15 01:11:42;;;;;;;17.25;11.68;;;7.90;94.30;;;;;;5018559;28;20117;-71
2020/12/15 01:14:07;;;;;;;17.67;11.77;;;7.90;94.30;;;;;;5021553;28;20029;-71
2020/12/15 01:16:33;;;;;;;16.90;11.68;;;7.80;94.30;;;;;;5030057;28;20028;-70
2020/12/15 01:18:58;;;;;;;19.30;12.18;;;7.80;94.30;;;;;;5024341;28;20029;-70
2020/12/15 01:21:28;;;;;;;16.33;11.18;;;7.80;94.30;;;;;;5015071;28;20108;-70
2020/12/15 01:23:54;;;;;;;19.13;12.05;;;7.80;94.40;;;;;;5020382;28;20037;-69
2020/12/15 01:26:20;;;;;;;18.17;11.75;;;7.80;94.40;;;;;;5014615;28;20390;-70
2020/12/15 01:28:45;;;;;;;18.80;11.77;;;7.80;94.40;;;;;;5026274;28;20037;-70
2020/12/15 01:31:11;;;;;;;18.08;11.88;;;7.80;94.40;;;;;;5037488;28;20013;-70
2020/12/15 01:33:37;;;;;;;16.80;11.00;;;7.70;94.30;;;;;;5015128;28;20029;-70
2020/12/15 01:36:03;;;;;;;17.65;11.38;;;7.80;94.30;;;;;;5034421;28;20029;-71
2020/12/15 01:38:28;;;;;;;16.58;11.32;;;7.80;94.30;;;;;;5013636;28;20083;-70
2020/12/15 01:40:54;;;;;;;17.55;10.90;;;7.70;94.30;;;;;;5034551;28;20018;-71
2020/12/15 01:43:19;;;;;;;16.17;10.43;;;7.70;94.30;;;;;;5021952;28;20430;-71
2020/12/15 01:45:45;;;;;;;16.60;10.82;;;7.80;94.40;;;;;;5035041;28;20037;-70
2020/12/15 01:48:11;;;;;;;15.80;10.80;;;7.80;94.40;;;;;;5037514;28;20030;-70
2020/12/15 01:50:37;;;;;;;15.88;10.88;;;7.80;94.30;;;;;;5034333;28;20470;-70
2020/12/15 01:53:12;;;;;;;16.40;11.23;;;7.80;94.30;;;;;;5033666;28;20045;-70
2020/12/15 01:55:38;;;;;;;14.77;10.48;;;7.70;94.30;;;;;;5034339;28;20494;-70
2020/12/15 01:58:05;;;;;;;18.60;11.50;;;7.70;94.40;;;;;;5032499;28;20065;-70
2020/12/15 02:00:30;;;;;;;15.90;10.05;;;7.70;94.40;;;;;;5033976;28;20029;-70
2020/12/15 02:02:56;;;;;;;14.95;10.90;;;7.80;94.40;;;;;;5036955;28;20029;-70
2020/12/15 02:05:22;;;;;;;16.73;11.32;;;7.70;94.40;;;;;;5041911;28;20029;-70
2020/12/15 02:07:48;;;;;;;16.70;9.85;;;7.70;94.40;;;;;;5031986;28;20037;-70
2020/12/15 02:10:13;;;;;;;17.40;10.63;;;7.70;94.30;;;;;;5033781;28;20025;-69
2020/12/15 02:12:40;;;;;;;16.05;11.00;;;7.80;94.30;;;;;;5036373;28;20028;-71
2020/12/15 02:15:06;;;;;;;16.60;11.45;;;7.70;94.30;;;;;;5053588;28;20035;-71
2020/12/15 02:17:38;;;;;;;17.38;11.25;;;7.80;94.30;;;;;;5037721;28;20033;-72
2020/12/15 02:20:08;;;;;;;15.73;10.40;;;7.80;94.30;;;;;;5013637;28;20026;-71
2020/12/15 02:22:34;;;;;;;16.80;10.65;;;7.80;94.30;;;;;;5020422;28;20068;-72
2020/12/15 02:24:59;;;;;;;16.33;10.30;;;7.70;94.30;;;;;;5033368;28;20053;-72
2020/12/15 02:27:25;;;;;;;16.50;10.90;;;7.70;94.30;;;;;;5032151;28;20043;-72
2020/12/15 02:29:51;;;;;;;16.88;10.95;;;7.70;94.30;;;;;;5033508;28;20022;-72
2020/12/15 02:32:16;;;;;;;15.95;10.32;;;7.80;94.40;;;;;;5032082;28;20393;-71
2020/12/15 02:34:42;;;;;;;15.13;10.90;;;7.70;94.30;;;;;;5048989;28;20116;-71
2020/12/15 02:37:13;;;;;;;16.38;11.18;;;7.80;94.30;;;;;;5042186;28;20030;-71
2020/12/15 02:39:39;;;;;;;14.25;9.88;;;7.80;94.30;;;;;;5032965;28;20030;-71
2020/12/15 02:42:04;;;;;;;14.40;10.63;;;7.80;94.20;;;;;;5032473;28;20029;-71
2020/12/15 02:44:30;;;;;;;15.23;10.02;;;7.80;94.20;;;;;;5044812;28;20035;-72
2020/12/15 02:46:56;;;;;;;16.52;11.35;;;7.70;94.20;;;;;;5044927;28;20033;-72
2020/12/15 02:49:22;;;;;;;13.90;9.93;;;7.70;94.20;;;;;;5031276;28;20033;-72
2020/12/15 02:51:51;;;;;;;17.65;11.02;;;7.70;94.20;;;;;;5032238;28;20105;-72
2020/12/15 02:54:17;;;;;;;17.60;10.90;;;7.70;94.20;;;;;;5042606;28;20041;-73
2020/12/15 02:56:43;;;;;;;15.75;10.85;;;7.70;94.30;;;;;;5044711;28;20536;-71
2020/12/15 02:59:09;;;;;;;17.90;11.25;;;7.70;94.30;;;;;;5032041;28;20090;-72
2020/12/15 03:01:44;;;;;;;16.00;11.77;;;7.70;94.30;;;;;;5028779;28;20124;-72
2020/12/15 03:04:10;;;;;;;16.70;10.63;;;7.70;94.30;;;;;;5031757;28;20025;-72
2020/12/15 03:06:35;;;;;;;17.23;11.70;;;7.70;94.30;;;;;;5013293;28;20053;-72
2020/12/15 03:09:03;;;;;;;16.90;11.52;;;7.70;94.40;;;;;;5034670;28;20035;-72
2020/12/15 03:11:29;;;;;;;16.63;11.38;;;7.60;94.30;;;;;;5043307;28;20025;-72
2020/12/15 03:13:54;;;;;;;16.10;11.07;;;7.70;94.30;;;;;;5031733;28;20049;-72
2020/12/15 03:16:20;;;;;;;19.48;12.05;;;7.70;94.30;;;;;;5031912;28;20021;-72
2020/12/15 03:18:45;;;;;;;16.58;11.18;;;7.70;94.40;;;;;;5037436;28;20068;-71
2020/12/15 03:21:15;;;;;;;16.08;11.60;;;7.60;94.40;;;;;;5042338;28;20025;-71
2020/12/15 03:23:40;;;;;;;17.60;11.35;;;7.60;94.30;;;;;;5031776;28;20041;-72
2020/12/15 03:26:06;;;;;;;16.67;11.55;;;7.60;94.40;;;;;;5031264;28;20029;-72
2020/12/15 03:28:31;;;;;;;16.67;11.35;;;7.60;94.40;;;;;;5034788;28;20036;-72
2020/12/15 03:30:57;;;;;;;17.48;11.90;;;7.60;94.40;;;;;;5045558;28;20477;-72
2020/12/15 03:33:22;;;;;;;19.17;11.73;;;7.60;94.40;;;;;;5031460;28;20466;-73
2020/12/15 03:35:48;;;;;;;17.23;12.38;;;7.60;94.40;;;;;;5031155;28;20151;-72
2020/12/15 03:38:13;;;;;;;17.55;11.85;;;7.60;94.40;;;;;;5032758;28;20170;-72
2020/12/15 03:40:39;;;;;;;19.23;11.98;;;7.60;94.40;;;;;;5045239;28;20497;-73
2020/12/15 03:43:04;;;;;;;17.42;11.50;;;7.60;94.40;;;;;;5041512;28;20044;-72
2020/12/15 03:45:30;;;;;;;18.92;12.73;;;7.60;94.40;;;;;;5041361;28;20036;-72
2020/12/15 03:47:56;;;;;;;19.58;13.35;;;7.60;94.40;;;;;;5014374;28;20042;-73
2020/12/15 03:50:22;;;;;;;21.90;13.00;;;7.60;94.40;;;;;;5042235;28;20017;-72
2020/12/15 03:52:47;;;;;;;17.67;12.18;;;7.60;94.40;;;;;;5030911;28;20029;-72
2020/12/15 03:55:13;;;;;;;21.33;11.93;;;7.60;94.40;;;;;;5031389;28;20040;-72
2020/12/15 03:57:38;;;;;;;17.60;11.98;;;7.60;94.40;;;;;;5031173;28;20536;-72
2020/12/15 04:00:05;;;;;;;18.15;12.35;;;7.60;94.40;;;;;;5014091;28;20033;-72
2020/12/15 04:02:30;;;;;;;19.17;12.88;;;7.60;94.40;;;;;;5034304;28;20500;-71
2020/12/15 04:04:56;;;;;;;16.88;11.68;;;7.60;94.40;;;;;;5030905;28;20025;-71
2020/12/15 04:07:21;;;;;;;18.88;12.05;;;7.60;94.40;;;;;;5031628;28;20367;-71
2020/12/15 04:09:47;;;;;;;20.60;13.18;;;7.60;94.40;;;;;;5030016;28;20029;-70
2020/12/15 04:12:12;;;;;;;20.17;12.25;;;7.60;94.40;;;;;;5030806;28;20033;-71
2020/12/15 04:14:42;;;;;;;19.58;12.70;;;7.60;94.40;;;;;;5022914;28;20025;-71
2020/12/15 04:17:08;;;;;;;16.58;12.10;;;7.70;94.40;;;;;;5031312;28;20021;-71
2020/12/15 04:19:35;;;;;;;17.00;11.75;;;7.60;94.30;;;;;;5029863;28;20063;-71
2020/12/15 04:22:00;;;;;;;20.08;13.27;;;7.60;94.30;;;;;;5011482;28;20042;-71
2020/12/15 04:24:26;;;;;;;19.77;13.60;;;7.60;94.30;;;;;;5030457;28;20492;-71
2020/12/15 04:26:51;;;;;;;19.67;12.13;;;7.50;94.30;;;;;;5021759;28;20034;-71
2020/12/15 04:29:17;;;;;;;18.40;12.85;;;7.50;94.30;;;;;;5023363;28;20044;-71
2020/12/15 04:31:42;;;;;;;21.58;12.80;;;7.50;94.30;;;;;;5012124;28;20042;-71
2020/12/15 04:34:08;;;;;;;19.63;12.70;;;7.50;94.30;;;;;;5024282;28;20028;-71
2020/12/15 04:36:33;;;;;;;19.30;12.35;;;7.50;94.30;;;;;;5030874;28;20059;-71
2020/12/15 04:38:59;;;;;;;20.67;13.18;;;7.40;94.30;;;;;;5004262;28;20048;-71
2020/12/15 04:41:24;;;;;;;21.00;13.57;;;7.40;94.30;;;;;;5031405;28;20174;-72
2020/12/15 04:43:51;;;;;;;20.67;13.25;;;7.40;94.40;;;;;;5014040;28;20034;-72
2020/12/15 04:46:21;;;;;;;19.00;12.75;;;7.40;94.40;;;;;;5012015;28;20056;-72
2020/12/15 04:49:02;;;;;;;19.30;13.70;;;7.40;94.40;;;;;;5012817;28;20034;-72
2020/12/15 04:51:28;;;;;;;22.10;14.10;;;7.40;94.40;;;;;;5030778;28;20030;-72
2020/12/15 04:53:54;;;;;;;22.00;12.77;;;7.30;94.40;;;;;;5031273;28;20056;-72
2020/12/15 04:56:29;;;;;;;19.38;12.65;;;7.30;94.40;;;;;;5030742;28;20033;-72
2020/12/15 04:58:57;;;;;;;21.90;12.70;;;7.20;94.50;;;;;;5029105;28;20042;-71
2020/12/15 05:01:23;;;;;;;20.50;13.35;;;7.30;94.50;;;;;;5011654;28;20373;-72
2020/12/15 05:03:52;;;;;;;21.90;14.02;;;7.20;94.50;;;;;;5017083;28;20030;-73
2020/12/15 05:06:24;;;;;;;22.98;13.55;;;7.20;94.50;;;;;;5030424;28;20464;-72
2020/12/15 05:08:50;;;;;;;19.83;13.70;;;7.20;94.60;;;;;;5029384;28;20128;-72
2020/12/15 05:11:15;;;;;;;19.55;12.23;;;7.20;94.60;;;;;;5032677;28;20119;-72
2020/12/15 05:13:41;;;;;;;18.20;12.60;;;7.20;94.60;;;;;;5042416;28;20032;-73
2020/12/15 05:16:06;;;;;;;21.90;12.68;;;7.10;94.50;;;;;;5011278;28;20176;-72
2020/12/15 05:18:32;;;;;;;20.48;13.07;;;7.10;94.60;;;;;;5014891;28;20033;-73
2020/12/15 05:20:57;;;;;;;19.50;13.32;;;7.10;94.60;;;;;;5030016;28;20022;-71
2020/12/15 05:23:23;;;;;;;24.98;15.07;;;7.10;94.60;;;;;;5029912;28;20099;-69
2020/12/15 05:25:48;;;;;;;22.42;14.30;;;7.10;94.70;;;;;;5030555;28;20029;-66
2020/12/15 05:28:15;;;;;;;20.85;12.65;;;7.10;94.70;;;;;;5030183;28;20033;-69
2020/12/15 05:30:41;;;;;;;21.00;13.18;;;7.00;94.70;;;;;;5014648;28;20026;-69
2020/12/15 05:33:16;;;;;;;24.73;14.52;;;7.00;94.70;;;;;;5010999;28;20018;-70
2020/12/15 05:35:43;;;;;;;21.38;13.02;;;7.00;94.80;;;;;;5031139;28;20044;-68
2020/12/15 05:38:09;;;;;;;22.05;14.00;;;7.00;94.80;;;;;;5030027;28;20033;-69
2020/12/15 05:40:37;;;;;;;22.55;14.43;;;6.90;94.80;;;;;;5021156;28;20547;-69
2020/12/15 05:43:04;;;;;;;22.48;14.38;;;6.90;94.90;;;;;;5030696;28;20025;-69
2020/12/15 05:45:32;;;;;;;23.98;14.07;;;7.00;94.90;;;;;;5015701;28;20475;-69
2020/12/15 05:48:09;;;;;;;23.10;14.00;;;6.90;94.90;;;;;;5013169;28;20048;-69
2020/12/15 05:50:35;;;;;;;26.52;14.52;;;6.90;95.00;;;;;;5012804;28;20033;-69
2020/12/15 05:53:04;;;;;;;23.10;14.75;;;6.90;95.00;;;;;;5045112;28;20083;-69
2020/12/15 05:55:30;;;;;;;20.63;13.60;;;6.90;95.00;;;;;;5033116;28;20040;-69
2020/12/15 05:57:56;;;;;;;23.25;14.52;;;6.90;95.00;;;;;;5034299;28;20064;-69
2020/12/15 06:00:30;;;;;;;25.50;14.85;;;7.00;95.10;;;;;;5019140;28;20069;-69
2020/12/15 06:02:58;;;;;;;22.75;13.77;;;6.90;95.10;;;;;;5014253;28;20065;-69
2020/12/15 06:05:31;;;;;;;21.85;13.90;;;6.90;95.10;;;;;;5032020;28;20029;-69
2020/12/15 06:07:58;;;;;;;22.30;13.77;;;6.90;95.10;;;;;;5033898;28;20060;-69
2020/12/15 06:10:26;;;;;;;20.20;12.75;;;7.00;95.10;;;;;;5032281;28;20026;-69
2020/12/15 06:12:53;;;;;;;24.67;15.40;;;7.00;95.20;;;;;;5033498;28;20029;-69
2020/12/15 06:15:19;;;;;;;22.85;14.13;;;7.00;95.10;;;;;;5041127;28;20029;-69
2020/12/15 06:17:53;;;;;;;22.45;13.90;;;7.00;95.10;;;;;;5053799;28;20044;-68
2020/12/15 06:20:19;;;;;;;22.40;13.63;;;7.00;95.10;;;;;;5033540;28;20417;-69
2020/12/15 06:22:47;;;;;;;22.45;14.27;;;7.00;95.10;;;;;;5033708;28;20038;-69
2020/12/15 06:25:27;;;;;;;24.92;15.77;;;7.00;95.10;;;;;;5013161;28;20104;-69
2020/12/15 06:28:07;;;;;;;21.40;13.60;;;7.00;95.10;;;;;;5015011;28;20041;-69
2020/12/15 06:30:34;;;;;;;22.67;14.57;;;7.00;95.10;;;;;;5044241;28;20041;-69
2020/12/15 06:33:02;;;;;;;23.73;14.25;;;7.00;95.00;;;;;;5050851;28;20037;-69
2020/12/15 06:35:27;;;;;;;22.35;14.52;;;7.10;95.00;;;;;;5032819;28;20033;-69
2020/12/15 06:37:53;;;;;;;23.00;14.48;;;7.10;95.00;;;;;;5023796;28;20025;-69
2020/12/15 06:40:18;;;;;;;21.77;13.85;;;7.10;95.00;;;;;;5032546;28;20041;-69
2020/12/15 06:42:48;;;;;;;24.20;15.23;;;7.10;95.00;;;;;;5013731;28;20067;-69
2020/12/15 06:45:14;;;;;;;28.30;15.15;;;7.10;95.00;;;;;;5031442;28;20060;-69
2020/12/15 06:47:40;;;;;;;20.90;13.65;;;7.10;94.90;;;;;;5032239;28;20067;-69
2020/12/15 06:50:13;;;;;;;21.70;14.77;;;7.10;94.90;;;;;;5019386;28;20161;-69
2020/12/15 06:52:39;;;;;;;22.77;14.07;;;7.10;95.00;;;;;;5013030;28;20032;-69
2020/12/15 06:55:04;;;;;;;22.10;14.77;;;7.10;95.00;;;;;;5025715;28;20988;-69
2020/12/15 06:57:31;;;;;;;22.27;15.05;;;7.10;95.00;;;;;;5029398;28;21654;-69
2020/12/15 06:59:58;;;;;;;23.08;15.00;;;7.10;95.00;;;;;;5033221;28;20022;-67
2020/12/15 07:02:29;;;;;;;23.55;14.30;;;7.10;94.90;;;;;;5046722;28;20540;-68
2020/12/15 07:05:12;;;;;;;25.90;15.45;;;7.20;94.90;;;;;;5021022;28;20060;-68
2020/12/15 07:07:47;;;;;;;21.50;14.65;;;7.20;94.90;;;;;;5029915;28;20386;-68
2020/12/15 07:10:13;;;;;;;21.55;14.98;;;7.20;94.70;;;;;;5026260;28;20652;-67
2020/12/15 07:12:41;;;;;;;24.92;15.52;;;7.20;94.90;;;;;;5024650;28;20124;-68
2020/12/15 07:15:06;;;;;;;26.55;15.20;;;7.20;94.90;;;;;;5024495;28;20485;-68
2020/12/15 07:17:33;;;;;;;21.58;14.38;;;7.20;94.80;;;;;;5032267;28;20033;-68
2020/12/15 07:20:01;;;;;;;24.02;15.07;;;7.20;94.90;;;;;;5038433;28;20024;-68
2020/12/15 07:22:27;;;;;;;23.92;15.77;;;7.20;94.80;;;;;;5049018;28;20470;-69
2020/12/15 07:24:52;;;;;;;24.23;15.05;;;7.20;94.80;;;;;;5024957;28;20034;-69
2020/12/15 07:27:20;;;;;;;22.67;14.88;;;7.20;94.80;;;;;;5008476;28;20034;-68
2020/12/15 07:29:53;;;;;;;24.08;14.95;;;7.30;94.80;;;;;;5031482;28;20040;-68
2020/12/15 07:32:19;;;;;;;22.60;15.57;;;7.20;94.80;;;;;;5027385;28;20556;-68
2020/12/15 07:34:44;;;;;;;33.88;16.10;;;7.30;94.80;;;;;;5020706;28;20026;-68
2020/12/15 07:37:17;;;;;;;25.50;15.88;;;7.20;94.80;;;;;;5029413;28;20030;-68
2020/12/15 07:39:43;;;;;;;22.75;14.52;;;7.30;94.80;;;;;;5037023;28;20037;-68
2020/12/15 07:42:08;;;;;;;23.08;15.43;;;7.20;94.70;;;;;;5036803;28;20687;-67
2020/12/15 07:44:34;;;;;;;24.85;15.68;;;7.30;94.70;;;;;;5029570;28;20033;-66
2020/12/15 07:47:01;;;;;;;25.08;14.90;;;7.30;94.70;;;;;;4997105;28;20044;-67
2020/12/15 07:49:27;;;;;;;24.13;15.07;;;7.30;94.60;;;;;;5019320;28;20037;-67
2020/12/15 07:51:53;;;;;;;22.85;14.45;;;7.30;94.60;;;;;;5043829;28;20071;-67
2020/12/15 07:54:19;;;;;;;23.50;15.60;;;7.30;94.60;;;;;;5010991;28;20189;-68
2020/12/15 07:56:47;;;;;;;27.45;16.40;;;7.30;94.60;;;;;;5022260;28;20080;-68
2020/12/15 07:59:13;;;;;;;22.95;15.35;;;7.30;94.60;;;;;;5021811;28;20030;-68
2020/12/15 08:01:39;;;;;;;23.52;14.55;;;7.30;94.60;;;;;;5015399;28;20022;-68
2020/12/15 08:04:13;;;;;;;23.80;15.02;;;7.30;94.70;;;;;;5018309;28;20038;-68
2020/12/15 08:06:44;;;;;;;22.23;15.82;;;7.30;94.70;;;;;;5012333;28;20025;-68
2020/12/15 08:09:12;;;;;;;26.08;14.90;;;7.40;94.70;;;;;;5025380;28;20701;-68
2020/12/15 08:11:47;;;;;;;26.65;15.85;;;7.40;94.60;;;;;;5017730;28;20017;-67
2020/12/15 08:14:14;;;;;;;21.77;13.68;;;7.40;94.60;;;;;;5042072;28;20371;-67
2020/12/15 08:16:41;;;;;;;24.42;14.98;;;7.50;94.60;;;;;;5051831;28;20033;-67
2020/12/15 08:19:07;;;;;;;21.52;14.80;;;7.50;94.50;;;;;;5045350;28;20049;-67
2020/12/15 08:21:47;;;;;;;22.38;14.30;;;7.50;94.50;;;;;;5037433;28;20041;-67
2020/12/15 08:24:21;;;;;;;21.00;15.15;;;7.50;94.50;;;;;;5022650;28;20022;-67
2020/12/15 08:26:47;;;;;;;26.95;15.13;;;7.50;94.40;;;;;;5011710;28;20766;-66
2020/12/15 08:29:14;;;;;;;23.67;14.18;;;7.60;94.40;;;;;;5025666;28;20033;-67
2020/12/15 08:31:41;;;;;;;20.92;13.88;;;7.60;94.30;;;;;;5031711;28;20030;-67
2020/12/15 08:34:15;;;;;;;24.92;15.38;;;7.60;94.30;;;;;;5013006;28;20451;-67
2020/12/15 08:36:48;;;;;;;22.15;15.55;;;7.70;94.20;;;;;;5031063;28;20098;-67
2020/12/15 08:39:17;;;;;;;24.30;14.70;;;7.70;94.10;;;;;;5006567;28;20172;-67
2020/12/15 08:41:49;;;;;;;23.00;15.00;;;7.70;94.10;;;;;;5023482;28;20045;-67
2020/12/15 08:44:18;;;;;;;21.92;14.60;;;7.70;94.00;;;;;;5019010;28;20487;-67
2020/12/15 08:46:44;;;;;;;21.58;14.43;;;7.70;94.00;;;;;;4996840;28;20037;-67
2020/12/15 08:49:12;;;;;;;23.48;15.20;;;7.80;94.00;;;;;;5026752;28;20084;-67
2020/12/15 08:51:40;;;;;;;23.15;15.13;;;7.70;93.90;;;;;;5022319;28;20030;-67
2020/12/15 08:54:06;;;;;;;20.60;14.65;;;7.80;93.90;;;;;;5011177;28;20046;-67
2020/12/15 08:56:33;;;;;;;18.65;12.95;;;7.80;94.00;;;;;;5025225;28;20061;-67
2020/12/15 08:59:12;;;;;;;23.35;14.73;;;7.80;93.90;;;;;;5031345;28;20679;-67
2020/12/15 09:01:38;;;;;;;22.67;14.55;;;7.90;93.80;;;;;;5031258;28;20029;-66
2020/12/15 09:04:03;;;;;;;21.45;14.02;;;7.90;93.80;;;;;;5022087;28;20021;-67
2020/12/15 09:06:33;;;;;;;22.13;14.40;;;8.00;93.70;;;;;;5017096;28;20021;-68
2020/12/15 09:08:59;;;;;;;20.48;14.30;;;8.00;93.60;;;;;;5051062;28;20029;-67
2020/12/15 09:11:25;;;;;;;23.85;16.00;;;8.00;93.60;;;;;;5027944;28;20033;-67
2020/12/15 09:13:52;;;;;;;23.75;15.25;;;8.00;93.50;;;;;;5030882;28;20033;-67
2020/12/15 09:16:29;;;;;;;21.35;14.18;;;8.10;93.40;;;;;;5030935;28;20021;-67
2020/12/15 09:18:55;;;;;;;23.05;15.18;;;8.10;93.40;;;;;;5031145;28;20064;-67
2020/12/15 09:21:21;;;;;;;24.75;15.30;;;8.10;93.40;;;;;;5033925;28;20025;-67
2020/12/15 09:23:54;;;;;;;22.67;14.77;;;8.20;93.40;;;;;;5034697;28;20485;-67
2020/12/15 09:26:21;;;;;;;21.38;14.70;;;8.20;93.40;;;;;;5034615;28;20074;-67
2020/12/15 09:28:47;;;;;;;23.02;14.30;;;8.20;93.40;;;;;;5034920;28;20029;-67
2020/12/15 09:31:18;;;;;;;21.95;14.60;;;8.30;93.40;;;;;;5034348;28;20025;-67
2020/12/15 09:33:44;;;;;;;21.50;14.32;;;8.40;93.20;;;;;;5034777;28;20116;-67
2020/12/15 09:36:13;;;;;;;24.60;14.52;;;8.40;93.20;;;;;;5034303;28;20017;-67
2020/12/15 09:38:39;;;;;;;23.58;14.70;;;8.50;93.10;;;;;;5033886;28;20497;-66
2020/12/15 09:41:05;;;;;;;23.90;14.57;;;8.50;92.90;;;;;;5034701;28;20025;-67
2020/12/15 09:43:30;;;;;;;23.55;14.73;;;8.60;92.80;;;;;;5034247;28;20029;-67
2020/12/15 09:45:55;;;;;;;21.65;14.70;;;8.50;92.70;;;;;;5016250;28;20386;-67
2020/12/15 09:48:21;;;;;;;23.63;14.40;;;8.60;92.70;;;;;;5034354;28;20030;-67
2020/12/15 09:50:47;;;;;;;22.45;14.40;;;8.50;92.70;;;;;;5034562;28;20032;-66
2020/12/15 09:53:12;;;;;;;21.25;14.75;;;8.60;92.70;;;;;;5034000;28;20033;-67
2020/12/15 09:55:39;;;;;;;22.02;15.82;;;8.60;92.70;;;;;;5033453;28;20428;-67
2020/12/15 09:58:05;;;;;;;23.38;15.40;;;8.60;92.60;;;;;;5034045;28;20623;-67
2020/12/15 10:00:31;;;;;;;24.95;14.63;;;8.60;92.60;;;;;;5034123;28;20040;-67
2020/12/15 10:02:56;;;;;;;25.73;14.93;;;8.70;92.50;;;;;;5033847;28;20021;-67
2020/12/15 10:05:22;;;;;;;22.90;14.43;;;8.70;92.40;;;;;;5034049;28;20474;-66
2020/12/15 10:07:47;;;;;;;21.27;14.52;;;8.70;92.40;;;;;;5034012;28;20429;-66
2020/12/15 10:10:16;;;;;;;23.15;14.93;;;8.70;92.40;;;;;;5034261;28;20419;-66
2020/12/15 10:12:42;;;;;;;22.98;14.95;;;8.80;92.40;;;;;;5017471;28;20113;-66
2020/12/15 10:15:07;;;;;;;21.52;14.90;;;8.80;92.30;;;;;;5014122;28;20022;-66
2020/12/15 10:17:33;;;;;;;22.73;15.07;;;8.80;92.30;;;;;;5018154;28;20124;-66
2020/12/15 10:19:58;;;;;;;21.92;14.43;;;8.80;92.30;;;;;;5033835;28;20032;-66
2020/12/15 10:22:25;;;;;;;19.73;13.90;;;8.80;92.30;;;;;;5033907;28;20024;-66
2020/12/15 10:24:51;;;;;;;21.83;14.63;;;8.90;92.30;;;;;;5033533;28;20018;-66
2020/12/15 10:27:16;;;;;;;21.55;15.18;;;8.90;92.20;;;;;;5024281;28;20033;-67
2020/12/15 10:29:42;;;;;;;21.38;14.63;;;8.90;92.10;;;;;;5014690;28;20613;-66
2020/12/15 10:32:07;;;;;;;20.80;14.52;;;8.90;92.10;;;;;;5013924;28;20022;-66
2020/12/15 10:34:33;;;;;;;23.95;14.38;;;8.90;92.00;;;;;;5013809;28;20030;-66
2020/12/15 10:36:58;;;;;;;21.77;14.57;;;8.90;91.90;;;;;;5013805;28;20026;-66
2020/12/15 10:39:24;;;;;;;21.95;13.82;;;8.90;91.90;;;;;;5013877;28;20033;-67
2020/12/15 10:41:50;;;;;;;20.33;14.00;;;8.90;92.00;;;;;;5017849;28;20026;-66
2020/12/15 10:44:16;;;;;;;24.80;13.82;;;8.90;91.80;;;;;;5033108;28;20025;-69
2020/12/15 10:46:42;;;;;;;22.48;14.02;;;8.90;91.70;;;;;;5034614;28;20504;-68
2020/12/15 10:49:08;;;;;;;20.13;13.35;;;9.00;91.80;;;;;;5045918;28;20104;-67
2020/12/15 10:51:33;;;;;;;20.10;12.82;;;9.00;91.80;;;;;;5032458;28;20179;-67
2020/12/15 10:53:59;;;;;;;20.90;13.85;;;9.00;91.80;;;;;;5032097;28;20041;-67
2020/12/15 10:56:24;;;;;;;24.48;14.82;;;9.00;91.70;;;;;;5032811;28;20036;-68
2020/12/15 10:58:50;;;;;;;24.40;14.10;;;9.00;91.60;;;;;;5033043;28;20032;-67
2020/12/15 11:01:16;;;;;;;21.90;14.00;;;9.10;91.60;;;;;;5022896;28;20494;-68
2020/12/15 11:03:41;;;;;;;22.13;14.35;;;9.10;91.60;;;;;;5030292;28;20032;-68
2020/12/15 11:06:06;;;;;;;21.40;14.88;;;9.20;91.50;;;;;;5032285;28;20131;-69
2020/12/15 11:08:32;;;;;;;21.73;14.32;;;9.20;91.40;;;;;;5032089;28;20033;-68
2020/12/15 11:10:57;;;;;;;20.83;13.32;;;9.10;91.40;;;;;;5032076;28;20488;-67
2020/12/15 11:13:23;;;;;;;20.45;13.65;;;9.20;91.40;;;;;;5013740;28;20793;-68
2020/12/15 11:15:49;;;;;;;21.63;13.90;;;9.20;91.20;;;;;;5025618;28;20026;-68
2020/12/15 11:18:15;;;;;;;22.15;14.02;;;9.20;91.20;;;;;;5017826;28;20047;-68
2020/12/15 11:20:41;;;;;;;20.42;13.35;;;9.20;91.10;;;;;;5032343;28;20080;-68
2020/12/15 11:23:06;;;;;;;21.23;14.25;;;9.30;91.10;;;;;;5028032;28;20025;-69
2020/12/15 11:25:32;;;;;;;20.10;13.00;;;9.30;91.10;;;;;;5007241;28;20028;-67
2020/12/15 11:27:58;;;;;;;22.40;14.07;;;9.30;91.00;;;;;;5012571;28;20051;-67
2020/12/15 11:30:23;;;;;;;21.25;13.60;;;9.40;91.00;;;;;;5023514;28;20017;-69
2020/12/15 11:32:49;;;;;;;21.67;13.95;;;9.40;90.90;;;;;;5033591;28;20080;-68
2020/12/15 11:35:14;;;;;;;20.63;12.93;;;9.40;90.80;;;;;;5033512;28;20021;-68
2020/12/15 11:37:42;;;;;;;19.75;12.63;;;9.50;90.80;;;;;;5016896;28;20026;-67
2020/12/15 11:40:10;;;;;;;23.38;14.57;;;9.50;90.70;;;;;;5034423;28;20037;-68
2020/12/15 11:42:36;;;;;;;21.38;14.55;;;9.50;90.60;;;;;;5032665;28;20056;-68
2020/12/15 11:45:02;;;;;;;24.42;14.15;;;9.60;90.50;;;;;;5034720;28;20025;-67
2020/12/15 11:47:28;;;;;;;21.13;14.00;;;9.60;90.50;;;;;;5015696;28;20091;-68
2020/12/15 11:49:53;;;;;;;20.30;12.75;;;9.60;90.40;;;;;;5014725;28;20022;-68
2020/12/15 11:52:19;;;;;;;22.67;13.23;;;9.60;90.30;;;;;;5022609;28;20026;-67
2020/12/15 11:54:45;;;;;;;20.98;13.73;;;9.60;90.30;;;;;;5026783;28;20104;-68
2020/12/15 11:57:11;;;;;;;22.23;14.40;;;9.70;90.30;;;;;;5032648;28;20040;-69
2020/12/15 11:59:37;;;;;;;23.17;13.75;;;9.70;90.20;;;;;;5033932;28;20478;-68
2020/12/15 12:02:04;;;;;;;20.90;13.43;;;9.70;90.20;;;;;;5033395;28;20034;-67
2020/12/15 12:04:29;;;;;;;20.48;12.77;;;9.80;90.10;;;;;;5033019;28;20032;-68
2020/12/15 12:06:55;;;;;;;21.30;13.00;;;9.80;90.10;;;;;;5028671;28;20579;-68
2020/12/15 12:09:20;;;;;;;19.75;13.50;;;9.80;90.00;;;;;;5031412;28;20112;-68
2020/12/15 12:11:47;;;;;;;21.52;14.23;;;9.90;90.00;;;;;;5030948;28;20048;-68
2020/12/15 12:14:13;;;;;;;21.35;12.90;;;9.90;89.90;;;;;;5031573;28;20033;-68
2020/12/15 12:16:38;;;;;;;17.92;12.57;;;10.00;90.00;;;;;;5031864;28;20029;-68
2020/12/15 12:19:04;;;;;;;20.80;13.45;;;10.00;89.90;;;;;;5031363;28;20096;-68
2020/12/15 12:21:33;;;;;;;21.85;13.77;;;10.10;89.70;;;;;;5031369;28;20386;-68
2020/12/15 12:23:58;;;;;;;19.65;13.27;;;10.10;89.40;;;;;;5031102;28;20021;-69
2020/12/15 12:26:24;;;;;;;20.35;13.23;;;10.20;89.30;;;;;;5030006;28;20535;-69
2020/12/15 12:28:49;;;;;;;19.25;12.00;;;10.20;89.10;;;;;;5030650;28;20025;-68
2020/12/15 12:31:15;;;;;;;20.80;13.60;;;10.20;89.00;;;;;;5030579;28;20116;-68
2020/12/15 12:33:40;;;;;;;17.75;12.50;;;10.20;89.30;;;;;;5024841;28;20049;-68